createdAt,value
2023-01-23T00:01:36.853Z,19.11
2023-01-23T00:04:05.278Z,19.21
2023-01-23T00:06:32.162Z,19.30
2023-01-23T00:08:59.245Z,19.65
2023-01-23T00:11:27.680Z,19.16
2023-01-23T00:13:54.441Z,19.58
2023-01-23T00:16:22.764Z,19.47
2023-01-23T00:18:49.603Z,19.40
2023-01-23T00:21:20.780Z,19.91
2023-01-23T00:23:49.955Z,19.55
2023-01-23T00:26:21.812Z,19.54
2023-01-23T00:28:49.035Z,19.41
2023-01-23T00:31:18.631Z,19.29
2023-01-23T00:33:45.414Z,19.23
2023-01-23T00:36:14.064Z,19.12
2023-01-23T00:38:41.100Z,19.09
2023-01-23T00:41:08.048Z,19.23
2023-01-23T00:43:35.111Z,19.60
2023-01-23T00:46:03.222Z,18.09
2023-01-23T00:48:30.068Z,18.76
2023-01-23T00:50:56.805Z,18.83
2023-01-23T00:53:26.407Z,18.49
2023-01-23T00:55:53.180Z,19.26
2023-01-23T00:58:19.899Z,19.00
2023-01-23T01:00:46.986Z,19.22
2023-01-23T01:03:13.793Z,19.48
2023-01-23T01:05:40.876Z,19.06
2023-01-23T01:08:07.581Z,19.81
2023-01-23T01:10:34.457Z,20.10
2023-01-23T01:13:02.274Z,19.87
2023-01-23T01:15:29.172Z,20.26
2023-01-23T01:17:57.533Z,20.24
2023-01-23T01:20:25.717Z,19.85
2023-01-23T01:22:53.314Z,19.82
2023-01-23T01:25:20.407Z,20.40
2023-01-23T01:27:48.365Z,19.89
2023-01-23T01:30:17.040Z,20.04
2023-01-23T01:32:44.358Z,20.07
2023-01-23T01:35:13.136Z,20.19
2023-01-23T01:37:40.276Z,20.18
2023-01-23T01:40:08.293Z,19.74
2023-01-23T01:42:45.078Z,20.08
2023-01-23T01:45:50.219Z,20.27
2023-01-23T01:48:17.523Z,20.43
2023-01-23T01:50:44.548Z,19.98
2023-01-23T01:53:11.424Z,20.00
2023-01-23T01:55:38.273Z,20.88
2023-01-23T01:58:04.984Z,20.75
2023-01-23T02:00:31.678Z,21.00
2023-01-23T02:02:58.850Z,20.34
2023-01-23T02:05:31.017Z,20.53
2023-01-23T02:08:09.123Z,20.22
2023-01-23T02:10:35.965Z,19.90
2023-01-23T02:13:21.587Z,19.16
2023-01-23T02:15:48.500Z,18.88
2023-01-23T02:18:15.480Z,17.83
2023-01-23T02:20:42.253Z,17.31
2023-01-23T02:23:34.888Z,17.56
2023-01-23T02:26:03.758Z,16.96
2023-01-23T02:28:43.451Z,16.96
2023-01-23T02:31:10.341Z,16.73
2023-01-23T02:33:39.919Z,16.69
2023-01-23T02:36:07.114Z,16.16
2023-01-23T02:38:37.127Z,16.58
2023-01-23T02:41:04.534Z,16.96
2023-01-23T02:43:34.175Z,16.45
2023-01-23T02:46:06.374Z,16.61
2023-01-23T02:48:33.188Z,16.79
2023-01-23T02:50:59.963Z,16.55
2023-01-23T02:53:36.982Z,16.76
2023-01-23T02:56:03.797Z,16.70
2023-01-23T02:58:30.937Z,16.90
2023-01-23T03:00:57.659Z,16.86
2023-01-23T03:03:24.601Z,16.60
2023-01-23T03:05:52.857Z,16.21
2023-01-23T03:08:19.725Z,17.37
2023-01-23T03:10:46.603Z,16.83
2023-01-23T03:13:13.826Z,17.32
2023-01-23T03:15:41.809Z,16.82
2023-01-23T03:18:08.593Z,17.60
2023-01-23T03:20:39.383Z,17.26
2023-01-23T03:23:08.202Z,17.06
2023-01-23T03:25:34.931Z,17.33
2023-01-23T03:28:01.758Z,18.54
2023-01-23T03:30:28.725Z,17.97
2023-01-23T03:32:56.715Z,18.10
2023-01-23T03:35:23.434Z,18.53
2023-01-23T03:37:52.986Z,17.92
2023-01-23T03:40:21.586Z,18.42
2023-01-23T03:42:48.509Z,17.93
2023-01-23T03:45:15.310Z,18.45
2023-01-23T03:47:44.775Z,18.61
2023-01-23T03:50:11.886Z,19.66
2023-01-23T03:52:38.827Z,19.53
2023-01-23T03:55:06.888Z,19.73
2023-01-23T03:57:33.653Z,19.21
2023-01-23T04:00:00.603Z,20.29
2023-01-23T04:02:27.399Z,20.18
2023-01-23T04:04:54.168Z,19.66
2023-01-23T04:07:22.594Z,20.19
2023-01-23T04:09:49.353Z,20.05
2023-01-23T04:12:16.088Z,20.00
2023-01-23T04:14:42.894Z,20.24
2023-01-23T04:17:10.486Z,20.23
2023-01-23T04:19:37.203Z,20.50
2023-01-23T04:22:04.418Z,20.58
2023-01-23T04:24:32.944Z,20.29
2023-01-23T04:26:59.633Z,20.03
2023-01-23T04:29:26.465Z,20.31
2023-01-23T04:31:54.715Z,20.96
2023-01-23T04:34:22.724Z,20.30
2023-01-23T04:36:49.470Z,20.28
2023-01-23T04:39:17.602Z,20.20
2023-01-23T04:41:44.393Z,20.64
2023-01-23T04:44:11.616Z,20.66
2023-01-23T04:46:39.031Z,20.49
2023-01-23T04:49:05.713Z,20.46
2023-01-23T04:51:33.669Z,20.66
2023-01-23T04:54:00.899Z,20.86
2023-01-23T04:56:27.752Z,20.21
2023-01-23T04:58:54.777Z,20.25
2023-01-23T05:01:21.755Z,20.40
2023-01-23T05:03:52.129Z,20.82
2023-01-23T05:06:19.483Z,20.27
2023-01-23T05:08:46.229Z,20.74
2023-01-23T05:11:14.040Z,20.71
2023-01-23T05:13:40.744Z,20.73
2023-01-23T05:16:07.776Z,20.02
2023-01-23T05:18:34.581Z,20.46
2023-01-23T05:21:01.306Z,20.17
2023-01-23T05:23:29.749Z,20.71
2023-01-23T05:25:56.578Z,20.63
2023-01-23T05:28:24.333Z,21.17
2023-01-23T05:30:51.088Z,20.70
2023-01-23T05:33:17.866Z,20.92
2023-01-23T05:35:44.554Z,21.65
2023-01-23T05:38:12.509Z,20.84
2023-01-23T05:40:39.291Z,21.09
2023-01-23T05:43:07.005Z,21.96
2023-01-23T05:45:34.211Z,21.72
2023-01-23T05:48:00.990Z,21.71
2023-01-23T05:50:27.911Z,21.32
2023-01-23T05:52:54.797Z,21.34
2023-01-23T05:55:22.308Z,22.35
2023-01-23T05:57:50.381Z,22.07
2023-01-23T06:00:17.799Z,22.43
2023-01-23T06:02:44.795Z,21.83
2023-01-23T06:05:12.647Z,22.41
2023-01-23T06:07:40.826Z,21.44
2023-01-23T06:10:09.869Z,22.54
2023-01-23T06:12:36.915Z,21.79
2023-01-23T06:15:04.395Z,22.48
2023-01-23T06:17:31.710Z,22.22
2023-01-23T06:20:08.570Z,22.34
2023-01-23T06:22:38.192Z,23.06
2023-01-23T06:25:06.739Z,23.18
2023-01-23T06:27:35.493Z,23.35
2023-01-23T06:30:02.281Z,23.40
2023-01-23T06:32:29.025Z,22.36
2023-01-23T06:34:56.656Z,22.87
2023-01-23T06:37:23.366Z,23.42
2023-01-23T06:39:50.348Z,23.18
2023-01-23T06:42:17.034Z,22.58
2023-01-23T06:44:44.220Z,23.17
2023-01-23T06:47:10.941Z,23.58
2023-01-23T06:49:37.894Z,23.22
2023-01-23T06:52:04.750Z,22.77
2023-01-23T06:54:31.694Z,22.91
2023-01-23T06:56:59.664Z,22.97
2023-01-23T06:59:26.605Z,22.57
2023-01-23T07:01:53.381Z,23.21
2023-01-23T07:04:20.108Z,22.88
2023-01-23T07:06:46.852Z,23.29
2023-01-23T07:09:13.657Z,23.26
2023-01-23T07:11:44.451Z,23.08
2023-01-23T07:14:11.290Z,23.11
2023-01-23T07:16:38.310Z,23.14
2023-01-23T07:19:05.053Z,23.12
2023-01-23T07:21:34.965Z,22.35
2023-01-23T07:24:01.782Z,22.86
2023-01-23T07:26:28.943Z,22.51
2023-01-23T07:28:55.819Z,22.65
2023-01-23T07:31:23.572Z,22.39
2023-01-23T07:33:52.128Z,22.16
2023-01-23T07:36:21.668Z,21.62
2023-01-23T07:38:48.778Z,21.62
2023-01-23T07:41:24.759Z,21.71
2023-01-23T07:43:52.769Z,21.71
2023-01-23T07:46:19.680Z,21.75
2023-01-23T07:48:51.717Z,20.57
2023-01-23T07:51:19.992Z,21.12
2023-01-23T07:53:46.720Z,20.58
2023-01-23T07:56:16.278Z,20.60
2023-01-23T07:58:49.175Z,21.11
2023-01-23T08:01:16.769Z,20.25
2023-01-23T08:03:46.583Z,19.98
2023-01-23T08:06:25.326Z,20.45
2023-01-23T08:08:52.328Z,20.46
2023-01-23T08:11:19.173Z,20.10
2023-01-23T08:13:49.417Z,20.18
2023-01-23T08:16:17.581Z,19.82
2023-01-23T08:18:45.390Z,19.66
2023-01-23T08:21:12.767Z,19.76
2023-01-23T08:23:40.732Z,20.11
2023-01-23T08:26:15.212Z,20.24
2023-01-23T08:28:53.974Z,20.61
2023-01-23T08:31:23.767Z,20.21
2023-01-23T08:33:50.917Z,20.34
2023-01-23T08:36:21.289Z,19.56
2023-01-23T08:38:53.414Z,19.35
2023-01-23T08:41:20.211Z,18.81
2023-01-23T08:43:47.223Z,19.43
2023-01-23T08:46:16.134Z,18.82
2023-01-23T08:48:43.037Z,19.08
2023-01-23T08:51:11.851Z,17.98
2023-01-23T08:53:38.949Z,18.53
2023-01-23T08:56:10.453Z,18.08
2023-01-23T08:58:37.436Z,18.03
2023-01-23T09:01:04.757Z,18.36
2023-01-23T09:03:31.722Z,18.63
2023-01-23T09:06:06.971Z,18.22
2023-01-23T09:08:36.874Z,17.97
2023-01-23T09:11:08.361Z,18.88
2023-01-23T09:13:35.505Z,18.82
2023-01-23T09:16:02.362Z,18.39
2023-01-23T09:18:36.950Z,17.79
2023-01-23T09:21:12.989Z,17.74
2023-01-23T09:23:45.086Z,17.81
2023-01-23T09:26:12.823Z,18.21
2023-01-23T09:28:48.555Z,18.35
2023-01-23T09:31:20.154Z,18.44
2023-01-23T09:33:49.655Z,18.56
2023-01-23T09:36:16.416Z,18.15
2023-01-23T09:38:43.542Z,19.04
2023-01-23T09:41:23.237Z,18.42
2023-01-23T09:43:57.570Z,18.87
2023-01-23T09:46:40.688Z,18.69
2023-01-23T09:49:33.542Z,18.24
2023-01-23T09:52:28.992Z,19.18
2023-01-23T09:55:04.903Z,18.83
2023-01-23T09:58:02.243Z,18.61
2023-01-23T10:00:33.341Z,18.77
2023-01-23T10:03:01.658Z,19.28
2023-01-23T10:06:06.083Z,19.63
2023-01-23T10:08:39.640Z,20.22
2023-01-23T10:12:02.526Z,19.70
2023-01-23T10:14:55.616Z,19.65
2023-01-23T10:17:37.728Z,19.91
2023-01-23T10:20:52.079Z,19.90
2023-01-23T10:23:37.319Z,20.46
2023-01-23T10:26:04.170Z,20.84
2023-01-23T10:28:41.064Z,20.85
2023-01-23T10:31:30.318Z,20.62
2023-01-23T10:34:06.050Z,20.98
2023-01-23T10:37:13.590Z,21.01
2023-01-23T10:39:49.654Z,21.04
2023-01-23T10:42:21.882Z,22.08
2023-01-23T10:44:56.481Z,22.77
2023-01-23T10:47:44.186Z,22.06
2023-01-23T10:50:12.571Z,22.35
2023-01-23T10:52:48.702Z,22.19
2023-01-23T10:55:34.082Z,21.58
2023-01-23T10:58:00.896Z,21.93
2023-01-23T11:00:34.688Z,21.72
2023-01-23T11:03:31.002Z,22.42
2023-01-23T11:06:07.107Z,21.71
2023-01-23T11:08:38.959Z,22.13
2023-01-23T11:11:27.256Z,22.16
2023-01-23T11:14:16.107Z,22.00
2023-01-23T11:16:43.422Z,21.92
2023-01-23T11:19:16.140Z,22.09
2023-01-23T11:21:59.678Z,21.29
2023-01-23T11:24:41.622Z,21.07
2023-01-23T11:27:22.660Z,21.58
2023-01-23T11:30:09.260Z,21.77
2023-01-23T11:33:42.565Z,21.20
2023-01-23T11:42:33.137Z,22.80
2023-01-23T11:45:00.255Z,23.01
2023-01-23T11:47:44.952Z,23.04
2023-01-23T11:50:41.090Z,22.92
2023-01-23T11:57:08.202Z,23.30
2023-01-23T11:59:43.413Z,23.96
2023-01-23T12:02:32.625Z,23.32
2023-01-23T12:05:32.328Z,23.65
2023-01-23T12:08:28.647Z,23.08
2023-01-23T12:11:08.967Z,23.86
2023-01-23T12:14:14.590Z,22.74
2023-01-23T12:17:13.654Z,22.14
2023-01-23T12:20:03.175Z,22.03
2023-01-23T12:22:59.592Z,23.02
2023-01-23T12:26:03.657Z,22.49
2023-01-23T12:29:00.356Z,22.08
2023-01-23T12:35:12.154Z,21.53
2023-01-23T12:38:37.748Z,22.30
2023-01-23T12:41:40.606Z,22.37
2023-01-23T12:44:12.451Z,21.80
2023-01-23T12:47:04.513Z,21.12
2023-01-23T12:49:48.002Z,20.95
2023-01-23T12:52:44.538Z,20.79
2023-01-23T12:55:21.363Z,21.13
2023-01-23T12:57:59.449Z,21.39
2023-01-23T13:00:58.683Z,20.31
2023-01-23T13:04:17.628Z,20.77
2023-01-23T13:07:17.288Z,19.78
2023-01-23T13:10:00.036Z,19.94
2023-01-23T13:12:27.900Z,20.44
2023-01-23T13:15:14.901Z,19.77
2023-01-23T13:17:49.767Z,19.25
2023-01-23T13:20:33.493Z,19.10
2023-01-23T13:23:35.483Z,18.79
2023-01-23T13:26:17.835Z,18.74
2023-01-23T13:28:47.100Z,18.55
2023-01-23T13:31:35.995Z,18.94
2023-01-23T13:34:23.424Z,18.08
2023-01-23T13:36:53.676Z,18.86
2023-01-23T13:39:29.604Z,18.63
2023-01-23T13:42:14.829Z,19.17
2023-01-23T13:45:17.120Z,18.26
2023-01-23T14:21:41.100Z,18.47
2023-01-23T14:24:24.650Z,18.50
2023-01-23T14:26:53.036Z,18.77
2023-01-23T14:29:24.460Z,18.37
2023-01-23T14:31:51.354Z,19.23
2023-01-23T14:34:22.624Z,19.21
2023-01-23T14:37:10.830Z,19.37
2023-01-23T14:39:37.504Z,20.10
2023-01-23T14:42:23.692Z,19.55
2023-01-23T14:44:53.469Z,19.78
2023-01-23T14:47:26.088Z,19.40
2023-01-23T14:49:53.695Z,19.87
2023-01-23T14:52:29.142Z,19.80
2023-01-23T14:54:59.163Z,19.35
2023-01-23T14:57:28.993Z,19.81
2023-01-23T14:59:57.156Z,19.18
2023-01-23T15:02:29.737Z,19.14
2023-01-23T15:05:30.528Z,19.52
2023-01-23T15:08:07.247Z,19.82
2023-01-23T15:10:47.819Z,19.93
2023-01-23T15:13:41.273Z,19.95
2023-01-23T15:16:23.864Z,20.34
2023-01-23T15:18:59.256Z,19.91
2023-01-23T15:21:40.277Z,20.01
2023-01-23T15:24:11.912Z,20.19
2023-01-23T15:26:40.637Z,19.91
2023-01-23T15:29:10.523Z,20.27
2023-01-23T15:31:40.535Z,20.75
2023-01-23T15:34:26.836Z,20.77
2023-01-23T15:37:11.720Z,20.30
2023-01-23T15:39:49.347Z,20.72
2023-01-23T15:42:27.618Z,20.04
2023-01-23T15:44:55.341Z,21.06
2023-01-23T15:47:25.040Z,20.88
2023-01-23T15:50:04.084Z,23.45
2023-01-23T15:52:44.754Z,21.78
2023-01-23T15:55:12.674Z,26.68
2023-01-23T15:57:39.550Z,33.89
2023-01-23T16:00:28.683Z,32.80
2023-01-23T16:02:58.872Z,24.12
2023-01-23T16:05:27.592Z,31.15
2023-01-23T16:07:55.193Z,22.35
2023-01-23T16:10:26.255Z,22.05
2023-01-23T16:12:54.404Z,30.62
2023-01-23T16:15:25.604Z,21.96
2023-01-23T16:17:55.106Z,23.21
2023-01-23T16:20:27.932Z,32.74
2023-01-23T16:22:56.102Z,26.14
2023-01-23T16:25:41.921Z,23.79
2023-01-23T16:28:21.197Z,23.66
2023-01-23T16:30:54.711Z,24.47
2023-01-23T16:33:21.724Z,23.13
2023-01-23T16:35:51.585Z,22.38
2023-01-23T16:38:23.602Z,22.30
2023-01-23T16:40:51.572Z,22.46
2023-01-23T16:43:25.576Z,22.75
2023-01-23T16:45:58.692Z,22.23
2023-01-23T16:48:28.467Z,26.60
2023-01-23T16:51:23.180Z,22.24
2023-01-23T16:53:56.316Z,23.81
2023-01-23T16:56:39.111Z,31.21
2023-01-23T16:59:09.294Z,23.20
2023-01-23T17:01:37.208Z,25.68
2023-01-23T17:04:04.616Z,24.91
2023-01-23T17:06:31.635Z,26.32
2023-01-23T17:08:58.347Z,24.03
2023-01-23T17:11:46.074Z,22.81
2023-01-23T17:14:32.919Z,34.57
2023-01-23T17:17:06.878Z,22.13
2023-01-23T17:19:38.206Z,34.32
2023-01-23T17:22:29.910Z,25.50
2023-01-23T17:24:59.721Z,23.18
2023-01-23T17:27:26.505Z,23.26
2023-01-23T17:29:53.565Z,22.67
2023-01-23T17:32:33.398Z,22.55
2023-01-23T17:35:02.970Z,22.87
2023-01-23T17:37:30.127Z,22.87
2023-01-23T17:39:56.824Z,22.78
2023-01-23T17:42:23.560Z,25.73
2023-01-23T17:44:51.068Z,41.53
2023-01-23T17:47:21.043Z,54.90
2023-01-23T17:49:50.593Z,24.01
2023-01-23T17:52:17.847Z,24.14
2023-01-23T17:54:46.561Z,22.48
2023-01-23T17:57:13.324Z,29.61
2023-01-23T17:59:40.146Z,22.34
2023-01-23T18:02:26.700Z,22.17
2023-01-23T18:04:54.753Z,22.79
2023-01-23T18:07:21.995Z,23.02
2023-01-23T18:09:49.120Z,22.48
2023-01-23T18:12:22.733Z,22.10
2023-01-23T18:14:52.615Z,22.33
2023-01-23T18:17:46.436Z,22.71
2023-01-23T18:20:19.992Z,21.77
2023-01-23T18:22:48.041Z,21.98
2023-01-23T18:25:16.583Z,24.87
2023-01-23T18:27:44.084Z,21.76
2023-01-23T18:30:20.595Z,22.04
2023-01-23T18:33:24.244Z,22.58
2023-01-23T18:36:49.524Z,25.16
2023-01-23T18:39:36.093Z,23.75
2023-01-23T18:42:28.341Z,29.14
2023-01-23T18:44:56.584Z,22.93
2023-01-23T18:47:23.770Z,20.72
2023-01-23T18:49:51.342Z,22.55
2023-01-23T18:52:48.865Z,21.02
2023-01-23T18:55:24.390Z,29.32
2023-01-23T18:58:18.924Z,24.65
2023-01-23T19:01:11.733Z,25.11
2023-01-23T19:03:42.934Z,22.95
2023-01-23T19:06:21.648Z,30.63
2023-01-23T19:08:50.263Z,27.56
2023-01-23T19:11:47.768Z,22.63
2023-01-23T19:15:00.511Z,23.62
2023-01-23T19:17:48.295Z,23.26
2023-01-23T19:23:54.868Z,27.46
2023-01-23T19:26:23.015Z,24.31
2023-01-23T19:28:52.770Z,27.48
2023-01-23T19:31:28.534Z,21.67
2023-01-23T19:33:57.581Z,22.52
2023-01-23T19:36:28.264Z,37.88
2023-01-23T19:38:55.353Z,23.17
2023-01-23T19:41:50.532Z,19.67
2023-01-23T19:44:48.363Z,21.44
2023-01-23T19:47:15.491Z,22.92
2023-01-23T19:49:48.366Z,19.61
2023-01-23T19:52:17.992Z,20.25
2023-01-23T19:54:47.793Z,20.87
2023-01-23T19:57:14.799Z,20.35
2023-01-23T19:59:44.588Z,20.47
2023-01-23T20:02:19.977Z,21.17
2023-01-23T20:04:47.927Z,20.14
2023-01-23T20:07:15.123Z,19.85
2023-01-23T20:09:44.669Z,21.36
2023-01-23T20:12:12.081Z,20.62
2023-01-23T20:14:39.376Z,21.08
2023-01-23T20:17:09.201Z,20.56
2023-01-23T20:19:36.322Z,20.81
2023-01-23T20:22:03.106Z,20.08
2023-01-23T20:24:31.206Z,20.55
2023-01-23T20:26:58.237Z,20.81
2023-01-23T20:29:26.231Z,19.41
2023-01-23T20:31:53.951Z,21.55
2023-01-23T20:34:20.711Z,20.55
2023-01-23T20:36:48.324Z,25.55
2023-01-23T20:39:16.718Z,22.50
2023-01-23T20:41:44.558Z,19.67
2023-01-23T20:51:39.694Z,19.97
2023-01-23T20:54:06.409Z,20.69
2023-01-23T20:56:33.207Z,19.84
2023-01-23T20:59:00.081Z,26.41
2023-01-23T21:01:28.517Z,20.54
2023-01-23T21:03:55.321Z,19.87
2023-01-23T21:06:23.138Z,21.33
2023-01-23T21:08:51.533Z,20.55
2023-01-23T21:11:19.210Z,20.09
2023-01-23T21:13:56.058Z,21.95
2023-01-23T21:16:22.956Z,19.33
2023-01-23T21:18:49.972Z,19.60
2023-01-23T21:21:21.113Z,19.97
2023-01-23T21:23:49.574Z,19.44
2023-01-23T21:26:20.144Z,19.87
2023-01-23T21:28:51.336Z,19.80
2023-01-23T21:31:23.263Z,19.47
2023-01-23T21:33:50.101Z,19.22
2023-01-23T21:36:19.497Z,19.61
2023-01-23T21:38:46.336Z,20.37
2023-01-23T21:41:13.211Z,19.99
2023-01-23T21:43:40.163Z,19.67
2023-01-23T21:46:08.329Z,19.06
2023-01-23T21:48:35.104Z,19.42
2023-01-23T21:51:08.908Z,19.94
2023-01-23T21:53:36.916Z,20.21
2023-01-23T21:56:04.605Z,20.03
2023-01-23T21:58:31.511Z,20.16
2023-01-23T22:01:08.313Z,20.70
2023-01-23T22:03:35.125Z,19.19
2023-01-23T22:06:02.202Z,20.57
2023-01-23T22:08:45.112Z,20.20
2023-01-23T22:11:11.952Z,20.21
2023-01-23T22:13:38.829Z,19.98
2023-01-23T22:16:10.011Z,20.91
2023-01-23T22:18:38.834Z,19.88
2023-01-23T22:21:06.005Z,20.10
2023-01-23T22:23:33.297Z,20.01
2023-01-23T22:26:01.885Z,20.11
2023-01-23T22:28:28.697Z,20.28
2023-01-23T22:30:56.189Z,20.27
2023-01-23T22:33:32.779Z,20.02
2023-01-23T22:36:03.821Z,20.21
2023-01-23T22:38:34.159Z,20.20
2023-01-23T22:41:02.909Z,19.62
2023-01-23T22:43:29.811Z,19.86
2023-01-23T22:46:22.958Z,20.08
2023-01-23T22:48:50.210Z,19.72
2023-01-23T22:51:18.952Z,20.18
2023-01-23T22:53:45.686Z,20.24
2023-01-23T22:56:12.521Z,19.64
2023-01-23T22:58:39.590Z,19.04
2023-01-23T23:01:06.582Z,19.63
2023-01-23T23:03:33.833Z,19.90
2023-01-23T23:06:01.893Z,19.16
2023-01-23T23:08:28.666Z,20.89
2023-01-23T23:11:09.073Z,20.29
2023-01-23T23:13:36.641Z,19.46
2023-01-23T23:16:08.489Z,19.07
2023-01-23T23:18:38.294Z,19.51
2023-01-23T23:21:10.605Z,19.68
2023-01-23T23:23:38.613Z,19.39
2023-01-23T23:26:08.510Z,19.64
2023-01-23T23:28:35.465Z,20.06
2023-01-23T23:31:02.252Z,19.93
2023-01-23T23:33:29.433Z,19.51
2023-01-23T23:35:56.647Z,19.88
2023-01-23T23:38:23.418Z,19.88
2023-01-23T23:40:57.651Z,19.67
2023-01-23T23:43:27.276Z,19.90
2023-01-23T23:46:02.397Z,20.14
2023-01-23T23:48:30.004Z,19.63
2023-01-23T23:50:58.736Z,20.08
2023-01-23T23:53:35.648Z,19.78
2023-01-23T23:56:02.426Z,20.47
2023-01-23T23:58:29.359Z,20.47
